createdAt,value
2023-03-26T00:01:24.863Z,97537.00
2023-03-26T00:03:57.946Z,97537.00
2023-03-26T00:06:31.408Z,97527.00
2023-03-26T00:08:58.513Z,97526.56
2023-03-26T00:11:27.774Z,97528.88
2023-03-26T00:13:59.364Z,97520.03
2023-03-26T00:16:28.942Z,97518.47
2023-03-26T00:18:55.984Z,97512.63
2023-03-26T00:21:29.475Z,97526.47
2023-03-26T00:24:15.373Z,97512.91
2023-03-26T00:26:44.174Z,97511.31
2023-03-26T00:29:13.822Z,97512.81
2023-03-26T00:31:41.093Z,97506.63
2023-03-26T00:34:08.729Z,97505.44
2023-03-26T00:36:36.032Z,97501.50
2023-03-26T00:39:05.687Z,97499.91
2023-03-26T00:41:34.223Z,97497.94
2023-03-26T00:44:00.828Z,97492.94
2023-03-26T00:46:29.802Z,97496.38
2023-03-26T00:48:59.953Z,97492.56
2023-03-26T00:51:29.322Z,97483.34
2023-03-26T00:53:57.082Z,97483.72
2023-03-26T00:56:25.630Z,97486.75
2023-03-26T00:58:52.143Z,97479.78
2023-03-26T01:01:29.551Z,97471.66
2023-03-26T01:04:08.793Z,97460.06
2023-03-26T01:06:41.250Z,97466.56
2023-03-26T01:09:17.190Z,97443.84
2023-03-26T01:11:46.467Z,97436.13
2023-03-26T01:14:26.886Z,97435.28
2023-03-26T01:16:56.228Z,97431.78
2023-03-26T01:19:56.942Z,97424.81
2023-03-26T01:22:28.457Z,97416.28
2023-03-26T01:24:56.702Z,97425.84
2023-03-26T01:27:53.908Z,97412.75
2023-03-26T01:30:35.004Z,97405.78
2023-03-26T01:33:16.485Z,97396.09
2023-03-26T01:36:26.029Z,97393.38
2023-03-26T01:39:18.926Z,97381.03
2023-03-26T01:41:49.383Z,97377.94
2023-03-26T01:44:15.785Z,97362.16
2023-03-26T01:46:43.771Z,97347.91
2023-03-26T01:49:13.517Z,97346.69
2023-03-26T01:51:42.278Z,97345.53
2023-03-26T01:54:21.240Z,97336.28
2023-03-26T01:57:20.426Z,97326.25
2023-03-26T02:00:41.236Z,97311.59
2023-03-26T02:03:27.883Z,97313.84
2023-03-26T02:06:03.017Z,97312.69
2023-03-26T02:08:37.614Z,97306.53
2023-03-26T02:11:14.411Z,97288.81
2023-03-26T02:13:43.691Z,97289.97
2023-03-26T02:16:16.827Z,97284.59
2023-03-26T02:18:45.068Z,97285.72
2023-03-26T02:21:20.606Z,97278.41
2023-03-26T02:23:50.779Z,97267.25
2023-03-26T02:26:20.235Z,97268.81
2023-03-26T02:28:46.959Z,97269.19
2023-03-26T02:31:13.824Z,97267.25
2023-03-26T02:33:40.611Z,97260.72
2023-03-26T02:36:12.628Z,97262.25
2023-03-26T02:38:39.877Z,97257.31
2023-03-26T02:41:06.379Z,97248.84
2023-03-26T02:43:32.982Z,97247.34
2023-03-26T02:45:59.812Z,97245.75
2023-03-26T02:48:27.033Z,97252.59
2023-03-26T02:51:02.245Z,97252.16
2023-03-26T02:53:31.815Z,97255.16
2023-03-26T02:55:59.359Z,97265.06
2023-03-26T02:58:28.431Z,97266.50
2023-03-26T03:00:55.267Z,97260.94
2023-03-26T03:03:24.360Z,97255.47
2023-03-26T03:05:55.084Z,97255.78
2023-03-26T03:08:24.202Z,97248.34
2023-03-26T03:11:02.558Z,97241.22
2023-03-26T03:13:29.378Z,97230.34
2023-03-26T03:15:56.434Z,97235.72
2023-03-26T03:18:25.326Z,97242.66
2023-03-26T03:20:52.172Z,97224.19
2023-03-26T03:23:21.417Z,97218.72
2023-03-26T03:25:50.651Z,97213.34
2023-03-26T03:28:18.261Z,97209.06
2023-03-26T03:30:45.868Z,97206.66
2023-03-26T03:33:15.409Z,97193.88
2023-03-26T03:35:42.698Z,97178.00
2023-03-26T03:38:10.740Z,97171.81
2023-03-26T03:40:37.454Z,97168.34
2023-03-26T03:43:03.945Z,97150.66
2023-03-26T03:45:30.425Z,97148.41
2023-03-26T03:48:02.525Z,97156.09
2023-03-26T03:50:29.095Z,97139.63
2023-03-26T03:52:55.984Z,97130.84
2023-03-26T03:55:33.863Z,97131.63
2023-03-26T03:58:00.405Z,97125.09
2023-03-26T04:00:27.124Z,97117.84
2023-03-26T04:03:00.647Z,97119.03
2023-03-26T04:05:27.187Z,97117.84
2023-03-26T04:07:53.746Z,97119.03
2023-03-26T04:10:22.124Z,97112.50
2023-03-26T04:12:50.974Z,97114.06
2023-03-26T04:15:17.472Z,97100.66
2023-03-26T04:17:45.101Z,97092.91
2023-03-26T04:20:15.715Z,97095.28
2023-03-26T04:22:49.708Z,97090.22
2023-03-26T04:25:16.404Z,97097.59
2023-03-26T04:27:44.101Z,97086.41
2023-03-26T04:30:15.698Z,97090.28
2023-03-26T04:32:43.091Z,97089.16
2023-03-26T04:35:14.312Z,97086.47
2023-03-26T04:37:42.866Z,97094.59
2023-03-26T04:40:15.230Z,97078.84
2023-03-26T04:42:41.839Z,97069.59
2023-03-26T04:45:13.473Z,97064.59
2023-03-26T04:47:40.250Z,97062.19
2023-03-26T04:50:08.581Z,97057.94
2023-03-26T04:52:35.513Z,97061.78
2023-03-26T04:55:02.256Z,97051.03
2023-03-26T04:57:35.432Z,97046.44
2023-03-26T05:00:16.746Z,97039.50
2023-03-26T05:02:43.750Z,97022.25
2023-03-26T05:05:12.550Z,97026.13
2023-03-26T05:07:39.282Z,97012.75
2023-03-26T05:10:06.755Z,97004.31
2023-03-26T05:12:33.280Z,96991.31
2023-03-26T05:15:01.594Z,96990.94
2023-03-26T05:17:31.024Z,97000.56
2023-03-26T05:19:57.804Z,96987.88
2023-03-26T05:22:28.779Z,96986.75
2023-03-26T05:24:56.328Z,96974.06
2023-03-26T05:27:22.858Z,96970.94
2023-03-26T05:29:51.218Z,96979.75
2023-03-26T05:32:17.714Z,96963.53
2023-03-26T05:34:46.705Z,96973.53
2023-03-26T05:37:15.544Z,96955.84
2023-03-26T05:39:43.850Z,96935.91
2023-03-26T05:42:10.342Z,96931.72
2023-03-26T05:44:37.130Z,96943.31
2023-03-26T05:47:05.939Z,96930.59
2023-03-26T05:49:32.451Z,96923.72
2023-03-26T05:51:59.084Z,96919.13
2023-03-26T05:54:25.629Z,96907.63
2023-03-26T05:56:52.807Z,96900.75
2023-03-26T05:59:29.599Z,96892.28
2023-03-26T06:01:59.699Z,96878.44
2023-03-26T06:04:28.677Z,96871.16
2023-03-26T06:06:55.347Z,96867.34
2023-03-26T06:09:21.851Z,96869.25
2023-03-26T06:11:48.391Z,96873.81
2023-03-26T06:14:21.276Z,96876.50
2023-03-26T06:16:48.021Z,96875.72
2023-03-26T06:19:14.579Z,96868.88
2023-03-26T06:21:41.303Z,96857.78
2023-03-26T06:24:07.870Z,96864.34
2023-03-26T06:26:34.362Z,96863.97
2023-03-26T06:29:05.448Z,96872.41
2023-03-26T06:31:31.988Z,96868.94
2023-03-26T06:33:58.465Z,96874.69
2023-03-26T06:36:26.726Z,96875.47
2023-03-26T06:38:53.518Z,96863.25
2023-03-26T06:41:20.213Z,96869.78
2023-03-26T06:43:46.757Z,96865.19
2023-03-26T06:46:13.449Z,96866.31
2023-03-26T06:48:42.072Z,96863.25
2023-03-26T06:51:10.330Z,96837.94
2023-03-26T06:53:38.543Z,96844.13
2023-03-26T06:56:07.133Z,96851.81
2023-03-26T06:58:37.480Z,96846.81
2023-03-26T07:01:04.118Z,96848.78
2023-03-26T07:03:30.712Z,96843.81
2023-03-26T07:06:03.722Z,96831.94
2023-03-26T07:08:31.675Z,96832.38
2023-03-26T07:11:01.954Z,96832.75
2023-03-26T07:13:28.558Z,96844.31
2023-03-26T07:15:55.090Z,96840.88
2023-03-26T07:18:21.661Z,96829.34
2023-03-26T07:20:50.160Z,96828.63
2023-03-26T07:23:20.460Z,96834.41
2023-03-26T07:25:48.590Z,96840.56
2023-03-26T07:28:35.528Z,96837.94
2023-03-26T07:31:20.555Z,96825.69
2023-03-26T07:34:02.426Z,96823.00
2023-03-26T07:36:36.076Z,96827.59
2023-03-26T07:39:09.356Z,96825.69
2023-03-26T07:41:54.767Z,96817.63
2023-03-26T07:44:53.144Z,96803.75
2023-03-26T07:47:32.806Z,96802.19
2023-03-26T07:50:01.508Z,96824.50
2023-03-26T07:52:28.320Z,96832.97
2023-03-26T07:54:55.615Z,96840.31
2023-03-26T07:57:45.632Z,96819.19
2023-03-26T08:00:22.765Z,96805.41
2023-03-26T08:03:01.971Z,96805.41
2023-03-26T08:05:32.958Z,96785.06
2023-03-26T08:08:15.508Z,96790.88
2023-03-26T08:11:02.002Z,96784.69
2023-03-26T08:14:07.781Z,96788.94
2023-03-26T08:16:54.727Z,96804.31
2023-03-26T08:19:33.389Z,96818.94
2023-03-26T08:22:11.241Z,96825.91
2023-03-26T08:25:09.919Z,96837.81
2023-03-26T08:27:43.366Z,96843.56
2023-03-26T08:30:25.463Z,96841.59
2023-03-26T08:33:00.392Z,96864.66
2023-03-26T08:35:30.453Z,96893.84
2023-03-26T08:37:57.006Z,96889.59
2023-03-26T08:41:06.322Z,96877.34
2023-03-26T08:43:55.589Z,96881.69
2023-03-26T08:47:02.616Z,96870.28
2023-03-26T08:49:29.774Z,96866.44
2023-03-26T08:52:55.457Z,96869.94
2023-03-26T08:55:43.720Z,96866.50
2023-03-26T08:58:46.750Z,96867.66
2023-03-26T09:01:37.354Z,96879.56
2023-03-26T09:04:26.592Z,96875.25
2023-03-26T09:06:59.681Z,96879.09
2023-03-26T09:09:55.594Z,96879.91
2023-03-26T09:12:23.745Z,96883.03
2023-03-26T09:15:42.142Z,96879.56
2023-03-26T09:18:41.921Z,96877.25
2023-03-26T09:21:22.615Z,96871.88
2023-03-26T09:24:25.495Z,96870.69
2023-03-26T09:27:14.135Z,96884.81
2023-03-26T09:30:02.166Z,96887.50
2023-03-26T09:32:44.194Z,96895.13
2023-03-26T09:35:42.369Z,96889.38
2023-03-26T09:38:40.632Z,96900.22
2023-03-26T09:41:17.973Z,96874.81
2023-03-26T09:44:05.588Z,96888.16
2023-03-26T09:46:53.780Z,96876.50
2023-03-26T09:49:30.814Z,96862.97
2023-03-26T09:52:08.065Z,96854.19
2023-03-26T09:54:57.730Z,96859.25
2023-03-26T09:57:43.098Z,96857.63
2023-03-26T10:00:20.764Z,96853.56
2023-03-26T10:03:22.540Z,96850.63
2023-03-26T10:06:00.812Z,96866.25
2023-03-26T10:08:34.161Z,96850.19
2023-03-26T10:11:20.457Z,96843.03
2023-03-26T10:14:00.292Z,96846.59
2023-03-26T10:16:41.219Z,96848.19
2023-03-26T10:19:20.163Z,96852.75
2023-03-26T10:22:25.346Z,96852.34
2023-03-26T10:24:58.462Z,96856.03
2023-03-26T10:27:48.944Z,96856.34
2023-03-26T10:30:25.517Z,96833.56
2023-03-26T10:33:02.275Z,96843.50
2023-03-26T10:35:52.908Z,96839.22
2023-03-26T10:38:54.852Z,96849.19
2023-03-26T10:41:54.631Z,96833.38
2023-03-26T10:44:51.258Z,96839.16
2023-03-26T10:47:36.439Z,96845.19
2023-03-26T10:50:40.842Z,96844.59
2023-03-26T10:53:19.540Z,96832.75
2023-03-26T10:55:54.824Z,96834.09
2023-03-26T10:58:26.421Z,96836.53
2023-03-26T11:01:03.467Z,96828.69
2023-03-26T11:03:45.353Z,96836.91
2023-03-26T11:06:30.160Z,96838.59
2023-03-26T11:09:16.967Z,96842.34
2023-03-26T11:15:15.080Z,96845.63
2023-03-26T11:17:56.397Z,96841.84
2023-03-26T11:20:38.671Z,96830.50
2023-03-26T11:23:32.228Z,96823.63
2023-03-26T11:26:15.191Z,96823.97
2023-03-26T11:29:31.098Z,96824.81
2023-03-26T11:32:33.549Z,96818.09
2023-03-26T11:35:00.140Z,96809.78
2023-03-26T11:37:43.428Z,96819.19
2023-03-26T11:40:16.580Z,96813.44
2023-03-26T11:42:43.986Z,96814.09
2023-03-26T11:45:17.904Z,96810.19
2023-03-26T11:47:51.888Z,96798.25
2023-03-26T11:50:28.859Z,96792.81
2023-03-26T11:53:03.190Z,96791.06
2023-03-26T11:55:32.297Z,96797.66
2023-03-26T11:58:00.189Z,96799.19
2023-03-26T12:00:28.588Z,96796.13
2023-03-26T12:03:01.447Z,96806.69
2023-03-26T12:05:36.608Z,96803.47
2023-03-26T12:11:14.541Z,96796.81
2023-03-26T12:13:44.546Z,96794.53
2023-03-26T12:16:17.554Z,96785.72
2023-03-26T12:18:46.585Z,96777.91
2023-03-26T12:21:26.216Z,96761.63
2023-03-26T12:24:05.329Z,96777.38
2023-03-26T12:26:49.281Z,96753.06
2023-03-26T12:29:19.174Z,96769.16
2023-03-26T12:31:56.033Z,96770.69
2023-03-26T12:34:30.899Z,96792.00
2023-03-26T12:37:02.773Z,96791.63
2023-03-26T12:40:10.313Z,96749.69
2023-03-26T12:44:45.046Z,96753.56
2023-03-26T12:45:39.682Z,96754.06
2023-03-26T12:48:07.826Z,96751.31
2023-03-26T12:50:42.755Z,96737.59
2023-03-26T12:53:40.234Z,96738.91
2023-03-26T12:56:36.471Z,96734.28
2023-03-26T12:59:41.561Z,96726.91
2023-03-26T13:02:36.343Z,96722.94
2023-03-26T13:05:28.804Z,96721.75
2023-03-26T13:08:32.761Z,96716.31
2023-03-26T13:11:20.413Z,96712.66
2023-03-26T13:14:33.487Z,96709.50
2023-03-26T13:17:37.977Z,96688.41
2023-03-26T13:20:33.066Z,96696.09
2023-03-26T13:23:17.288Z,96692.59
2023-03-26T13:25:53.200Z,96683.56
2023-03-26T13:28:37.796Z,96673.84
2023-03-26T13:31:21.945Z,96668.41
2023-03-26T13:33:57.436Z,96662.00
2023-03-26T13:36:52.177Z,96654.97
2023-03-26T13:39:42.763Z,96663.44
2023-03-26T13:42:15.487Z,96670.84
2023-03-26T13:45:06.170Z,96672.28
2023-03-26T13:47:41.540Z,96676.97
2023-03-26T13:50:15.567Z,96687.94
2023-03-26T13:53:06.467Z,96709.41
2023-03-26T13:55:59.856Z,96756.94
2023-03-26T13:58:45.184Z,96808.06
2023-03-26T14:01:21.419Z,96831.28
2023-03-26T14:04:09.077Z,96842.84
2023-03-26T14:06:49.362Z,96834.13
2023-03-26T14:09:23.019Z,96849.16
2023-03-26T14:12:20.986Z,96854.09
2023-03-26T14:15:13.873Z,96857.94
2023-03-26T14:18:24.372Z,96865.25
2023-03-26T14:20:56.369Z,96867.91
2023-03-26T14:23:27.660Z,96887.97
2023-03-26T14:26:19.254Z,96891.78
2023-03-26T14:29:07.986Z,96872.19
2023-03-26T14:31:54.166Z,96865.28
2023-03-26T14:34:39.749Z,96876.47
2023-03-26T14:37:44.588Z,96880.69
2023-03-26T14:40:18.686Z,96893.38
2023-03-26T14:43:09.576Z,96885.34
2023-03-26T14:45:56.494Z,96897.28
2023-03-26T14:49:00.037Z,96899.22
2023-03-26T14:51:42.608Z,96888.06
2023-03-26T14:54:12.965Z,96888.06
2023-03-26T14:56:53.699Z,96882.66
2023-03-26T14:59:44.339Z,96900.31
2023-03-26T15:02:46.424Z,96898.75
2023-03-26T15:05:37.453Z,96899.03
2023-03-26T15:08:21.296Z,96903.16
2023-03-26T15:11:28.621Z,96910.00
2023-03-26T15:14:37.442Z,96927.50
2023-03-26T15:17:34.473Z,96931.91
2023-03-26T15:20:50.431Z,96922.19
2023-03-26T15:23:29.150Z,96926.25
2023-03-26T15:26:27.800Z,96950.75
2023-03-26T15:29:35.581Z,96948.72
2023-03-26T15:32:26.262Z,96960.63
2023-03-26T15:35:09.709Z,96955.03
2023-03-26T15:38:16.320Z,96966.06
2023-03-26T15:41:01.899Z,96962.53
2023-03-26T15:44:22.972Z,96941.25
2023-03-26T15:47:01.798Z,96876.69
2023-03-26T15:49:43.761Z,96890.84
2023-03-26T15:52:24.031Z,96895.38
2023-03-26T15:55:14.582Z,96906.88
2023-03-26T15:57:47.548Z,96905.31
2023-03-26T16:00:24.435Z,96896.53
2023-03-26T16:03:19.557Z,96908.00
2023-03-26T16:06:16.331Z,96906.53
2023-03-26T16:09:10.502Z,96902.47
2023-03-26T16:11:49.633Z,96909.13
2023-03-26T16:14:24.234Z,96902.31
2023-03-26T16:16:58.721Z,96899.66
2023-03-26T16:19:50.464Z,96909.72
2023-03-26T16:22:42.547Z,96917.47
2023-03-26T16:25:29.130Z,96909.16
2023-03-26T16:28:19.649Z,96911.56
2023-03-26T16:31:10.644Z,96922.06
2023-03-26T16:34:03.478Z,96925.63
2023-03-26T16:36:35.712Z,96932.56
2023-03-26T16:39:11.622Z,96938.00
2023-03-26T16:41:50.268Z,96936.44
2023-03-26T16:44:44.001Z,96948.31
2023-03-26T16:47:38.707Z,96948.00
2023-03-26T16:50:45.621Z,96948.06
2023-03-26T16:53:29.539Z,96948.94
2023-03-26T16:56:09.567Z,96947.09
2023-03-26T16:58:59.224Z,96940.19
2023-03-26T17:01:34.230Z,96940.63
2023-03-26T17:04:17.284Z,96939.09
2023-03-26T17:06:45.884Z,96944.06
2023-03-26T17:09:34.430Z,96943.63
2023-03-26T17:12:14.904Z,96935.19
2023-03-26T17:15:11.027Z,96934.34
2023-03-26T17:17:55.701Z,96937.38
2023-03-26T17:20:25.337Z,96935.00
2023-03-26T17:23:30.769Z,96931.44
2023-03-26T17:26:04.041Z,96938.31
2023-03-26T17:28:47.838Z,96932.50
2023-03-26T17:31:31.589Z,96942.06
2023-03-26T17:34:38.352Z,96933.25
2023-03-26T17:37:27.951Z,96927.09
2023-03-26T17:40:00.466Z,96920.56
2023-03-26T17:42:37.939Z,96917.50
2023-03-26T17:45:21.873Z,96919.38
2023-03-26T17:47:58.778Z,96915.88
2023-03-26T17:50:52.665Z,96914.66
2023-03-26T17:53:26.323Z,96912.31
2023-03-26T17:55:56.056Z,96915.75
2023-03-26T17:58:28.181Z,96897.31
2023-03-26T18:01:14.495Z,96900.31
2023-03-26T18:03:49.665Z,96885.72
2023-03-26T18:06:59.336Z,96887.56
2023-03-26T18:09:38.004Z,96868.34
2023-03-26T18:12:23.046Z,96872.56
2023-03-26T18:15:12.918Z,96872.94
2023-03-26T18:17:47.721Z,96873.31
2023-03-26T18:20:26.600Z,96875.59
2023-03-26T18:22:53.295Z,96877.88
2023-03-26T18:25:29.125Z,96870.56
2023-03-26T18:27:56.666Z,96882.03
2023-03-26T18:30:25.958Z,96873.94
2023-03-26T18:33:06.808Z,96872.81
2023-03-26T18:35:46.528Z,96876.63
2023-03-26T18:38:35.798Z,96877.78
2023-03-26T18:41:08.086Z,96876.63
2023-03-26T18:43:43.933Z,96876.25
2023-03-26T18:46:14.523Z,96875.09
2023-03-26T18:48:41.659Z,96870.47
2023-03-26T18:51:08.868Z,96877.41
2023-03-26T18:53:50.891Z,96865.13
2023-03-26T18:56:49.452Z,96869.72
2023-03-26T18:59:33.994Z,96870.09
2023-03-26T19:02:05.032Z,96856.25
2023-03-26T19:04:34.997Z,96855.09
2023-03-26T19:07:02.904Z,96847.06
2023-03-26T19:09:32.393Z,96860.06
2023-03-26T19:12:07.302Z,96858.13
2023-03-26T19:14:39.215Z,96835.44
2023-03-26T19:17:07.121Z,96850.41
2023-03-26T19:19:38.334Z,96858.03
2023-03-26T19:22:07.220Z,96858.78
2023-03-26T19:24:36.219Z,96875.63
2023-03-26T19:27:03.725Z,96892.47
2023-03-26T19:29:35.554Z,96903.53
2023-03-26T19:32:04.980Z,96909.22
2023-03-26T19:34:39.052Z,96919.53
2023-03-26T19:37:26.817Z,96928.69
2023-03-26T19:40:01.286Z,96935.94
2023-03-26T19:42:43.221Z,96918.22
2023-03-26T19:45:19.248Z,96915.13
2023-03-26T19:48:03.626Z,96923.53
2023-03-26T19:50:43.016Z,96917.38
2023-03-26T19:53:25.593Z,96892.06
2023-03-26T19:56:25.563Z,96865.94
2023-03-26T19:58:52.616Z,96871.28
2023-03-26T20:01:23.755Z,96883.50
2023-03-26T20:03:54.569Z,96881.94
2023-03-26T20:06:33.918Z,96878.06
2023-03-26T20:09:13.145Z,96879.53
2023-03-26T20:11:40.838Z,96867.69
2023-03-26T20:14:27.479Z,96870.38
2023-03-26T20:16:54.511Z,96873.44
2023-03-26T20:19:21.081Z,96883.00
2023-03-26T20:21:47.694Z,96889.88
2023-03-26T20:24:16.177Z,96892.56
2023-03-26T20:26:44.033Z,96892.56
2023-03-26T20:29:11.778Z,96902.50
2023-03-26T20:31:41.550Z,96900.53
2023-03-26T20:34:24.486Z,96900.53
2023-03-26T20:36:55.319Z,96909.78
2023-03-26T20:39:25.401Z,96910.91
2023-03-26T20:41:53.959Z,96908.22
2023-03-26T20:44:21.237Z,96910.91
2023-03-26T20:46:49.335Z,96930.81
2023-03-26T20:49:25.213Z,96928.13
2023-03-26T20:51:53.949Z,96926.59
2023-03-26T20:54:26.353Z,96934.66
2023-03-26T20:56:58.378Z,96940.75
2023-03-26T20:59:27.444Z,96943.34
2023-03-26T21:01:57.488Z,96935.25
2023-03-26T21:04:26.114Z,96941.34
2023-03-26T21:06:55.670Z,96948.97
2023-03-26T21:09:34.014Z,96938.97
2023-03-26T21:12:05.808Z,96936.66
2023-03-26T21:14:41.925Z,96940.81
2023-03-26T21:17:21.085Z,96935.03
2023-03-26T21:19:50.605Z,96940.34
2023-03-26T21:22:29.928Z,96941.13
2023-03-26T21:25:05.610Z,96935.75
2023-03-26T21:27:41.230Z,96942.69
2023-03-26T21:30:18.434Z,96940.34
2023-03-26T21:32:45.675Z,96945.66
2023-03-26T21:35:13.703Z,96941.06
2023-03-26T21:37:44.756Z,96934.91
2023-03-26T21:40:16.981Z,96928.78
2023-03-26T21:42:52.203Z,96939.88
2023-03-26T21:45:20.028Z,96931.84
2023-03-26T21:47:49.119Z,96926.47
2023-03-26T21:50:20.665Z,96931.03
2023-03-26T21:52:51.003Z,96931.84
2023-03-26T21:55:22.053Z,96929.16
2023-03-26T21:57:56.276Z,96927.25
2023-03-26T22:00:30.732Z,96924.91
2023-03-26T22:03:32.802Z,96924.16
2023-03-26T22:06:31.221Z,96933.31
2023-03-26T22:08:59.657Z,96931.00
2023-03-26T22:11:26.253Z,96929.03
2023-03-26T22:13:53.267Z,96925.22
2023-03-26T22:16:20.034Z,96929.81
2023-03-26T22:18:46.539Z,96937.09
2023-03-26T22:21:14.155Z,96947.81
2023-03-26T22:23:40.871Z,96943.56
2023-03-26T22:26:07.375Z,96950.06
2023-03-26T22:28:36.546Z,96952.38
2023-03-26T22:31:10.268Z,96951.25
2023-03-26T22:33:38.265Z,96958.16
2023-03-26T22:36:05.092Z,96963.53
2023-03-26T22:38:56.602Z,96963.53
2023-03-26T22:41:23.625Z,96969.66
2023-03-26T22:43:53.604Z,96976.13
2023-03-26T22:46:21.437Z,96978.06
2023-03-26T22:48:51.522Z,96978.06
2023-03-26T22:51:18.826Z,96976.94
2023-03-26T22:53:47.250Z,96982.28
2023-03-26T22:56:15.364Z,96989.19
2023-03-26T22:58:42.361Z,96992.66
2023-03-26T23:01:13.133Z,96991.53
2023-03-26T23:03:39.633Z,96995.75
2023-03-26T23:06:08.605Z,96999.97
2023-03-26T23:08:39.630Z,97008.44
2023-03-26T23:11:20.416Z,97010.34
2023-03-26T23:13:51.021Z,97001.53
2023-03-26T23:16:17.796Z,97000.06
2023-03-26T23:18:45.233Z,97002.38
2023-03-26T23:21:20.215Z,97008.50
2023-03-26T23:23:48.671Z,97006.59
2023-03-26T23:26:16.326Z,97012.75
2023-03-26T23:28:43.488Z,97010.47
2023-03-26T23:31:12.327Z,97012.03
2023-03-26T23:33:48.317Z,97020.81
2023-03-26T23:36:17.691Z,97025.06
2023-03-26T23:38:46.761Z,97024.66
2023-03-26T23:41:17.372Z,97030.34
2023-03-26T23:43:54.536Z,97031.88
2023-03-26T23:46:31.022Z,97038.00
2023-03-26T23:49:00.204Z,97042.94
2023-03-26T23:51:27.004Z,97042.94
2023-03-26T23:53:53.941Z,97045.28
2023-03-26T23:56:21.086Z,97059.03
2023-03-26T23:58:49.010Z,97059.81
